KPGV/PGV METAR and TAF weather

Enter ICAO airport designator
Station Type Date Time Source
KPGV METAR 2020/10/22 03:15 UTC NOAA

KPGV 220315Z AUTO 00000KT 1/2SM FG VV005 17/17 A3025 RMK AO2 VIS 1/4V2


Station Type Date Time Source
KPGV Decoded METAR 2020/10/22 03:15 UTC NOAA

Pitt-Greenville Airport, NC, United States (KPGV) 35-38N 077-24W
Oct 21, 2020 - 11:15 PM EDT / 2020.10.22 0315 UTC
Wind: Calm:0
Visibility: 1/2 mile(s):0
Sky conditions: obscured
Weather: fog
Temperature: 62 F (17 C)
Dew Point: 62 F (17 C)
Relative Humidity: 100%
Pressure (altimeter): 30.25 in. Hg (1024 hPa)
ob: KPGV 220315Z AUTO 00000KT 1/2SM FG VV005 17/17 A3025 RMK AO2 VIS 1/4V2
cycle: 3

Station Type Date Time Source
KPGV TAF 2020/10/22 03:51 UTC NOAA

TAF
AMD KPGV 220249Z 2203/2224 00000KT 3SM BR BKN250
TEMPO 2203/2207 1/2SM FG VV003
FM220700 00000KT 2SM BR BKN003
FM221400 05005KT P6SM SCT030 BKN250
AMD LTD TO CLD VIS AND WIND

Example: see airport list